sensor_id;sensor_type;location;lat;lon;timestamp;pressure;altitude;pressure_sealevel;temperature;humidity
4326;BME280;58429;49.826;10.880;2024-01-30T00:00:22;100090;;;0.12;80.61
4326;BME280;58429;49.826;10.880;2024-01-30T00:01:22;100091;;;0.13;80.51
4326;BME280;58429;49.826;10.880;2024-01-30T00:02:22;100084;;;0.14;80.5
4326;BME280;58429;49.826;10.880;2024-01-30T00:03:22;100083;;;0.13;80.81
4326;BME280;58429;49.826;10.880;2024-01-30T00:04:22;100088;;;0.11;81.19
4326;BME280;58429;49.826;10.880;2024-01-30T00:05:21;100082;;;0.11;81.02
4326;BME280;58429;49.826;10.880;2024-01-30T00:06:22;100084;;;0.16;80.87
4326;BME280;58429;49.826;10.880;2024-01-30T00:07:21;100089;;;0.17;80.66
4326;BME280;58429;49.826;10.880;2024-01-30T00:08:21;100090;;;0.18;80.43
4326;BME280;58429;49.826;10.880;2024-01-30T00:09:22;100094;;;0.15;80.3
4326;BME280;58429;49.826;10.880;2024-01-30T00:10:21;100096;;;0.16;80.29
4326;BME280;58429;49.826;10.880;2024-01-30T00:11:22;100092;;;0.13;80.56
4326;BME280;58429;49.826;10.880;2024-01-30T00:12:22;100100;;;0.1;80.9
4326;BME280;58429;49.826;10.880;2024-01-30T00:13:22;100099;;;0.04;81.03
4326;BME280;58429;49.826;10.880;2024-01-30T00:14:22;100093;;;0.03;81.25
4326;BME280;58429;49.826;10.880;2024-01-30T00:15:22;100097;;;0.02;81.95
4326;BME280;58429;49.826;10.880;2024-01-30T00:16:22;100099;;;-0.04;82.27
4326;BME280;58429;49.826;10.880;2024-01-30T00:17:22;100096;;;-0.09;82.39
4326;BME280;58429;49.826;10.880;2024-01-30T00:18:22;100102;;;-0.11;82.55
4326;BME280;58429;49.826;10.880;2024-01-30T00:19:22;100100;;;-0.12;82.58
4326;BME280;58429;49.826;10.880;2024-01-30T00:20:22;100104;;;-0.15;82.76
4326;BME280;58429;49.826;10.880;2024-01-30T00:21:22;100106;;;-0.17;82.92
4326;BME280;58429;49.826;10.880;2024-01-30T00:22:22;100105;;;-0.2;82.9
4326;BME280;58429;49.826;10.880;2024-01-30T00:23:22;100110;;;-0.21;83.03
4326;BME280;58429;49.826;10.880;2024-01-30T00:24:22;100102;;;-0.22;83.13
4326;BME280;58429;49.826;10.880;2024-01-30T00:25:22;100104;;;-0.25;83.29
4326;BME280;58429;49.826;10.880;2024-01-30T00:26:22;100108;;;-0.29;83.51
4326;BME280;58429;49.826;10.880;2024-01-30T00:27:22;100107;;;-0.29;83.32
4326;BME280;58429;49.826;10.880;2024-01-30T00:28:22;100107;;;-0.26;83.28
4326;BME280;58429;49.826;10.880;2024-01-30T00:29:22;100106;;;-0.24;83.27
4326;BME280;58429;49.826;10.880;2024-01-30T00:30:22;100099;;;-0.23;83.03
4326;BME280;58429;49.826;10.880;2024-01-30T00:31:22;100097;;;-0.22;82.89
4326;BME280;58429;49.826;10.880;2024-01-30T00:32:22;100099;;;-0.19;82.66
4326;BME280;58429;49.826;10.880;2024-01-30T00:33:22;100100;;;-0.15;82.47
4326;BME280;58429;49.826;10.880;2024-01-30T00:34:22;100095;;;-0.15;82.24
4326;BME280;58429;49.826;10.880;2024-01-30T00:35:22;100097;;;-0.13;82.05
4326;BME280;58429;49.826;10.880;2024-01-30T00:36:22;100098;;;-0.11;81.87
4326;BME280;58429;49.826;10.880;2024-01-30T00:37:22;100097;;;-0.1;81.68
4326;BME280;58429;49.826;10.880;2024-01-30T00:38:22;100082;;;-0.11;81.53
4326;BME280;58429;49.826;10.880;2024-01-30T00:39:22;100090;;;-0.07;81.32
4326;BME280;58429;49.826;10.880;2024-01-30T00:40:22;100083;;;-0.07;81.07
4326;BME280;58429;49.826;10.880;2024-01-30T00:41:22;100084;;;-0.14;80.96
4326;BME280;58429;49.826;10.880;2024-01-30T00:42:22;100088;;;-0.1;80.92
4326;BME280;58429;49.826;10.880;2024-01-30T00:43:22;100078;;;-0.12;80.84
4326;BME280;58429;49.826;10.880;2024-01-30T00:44:22;100079;;;-0.11;80.82
4326;BME280;58429;49.826;10.880;2024-01-30T00:45:22;100074;;;-0.11;80.8
4326;BME280;58429;49.826;10.880;2024-01-30T00:46:22;100083;;;-0.12;80.73
4326;BME280;58429;49.826;10.880;2024-01-30T00:47:22;100081;;;-0.11;80.61
4326;BME280;58429;49.826;10.880;2024-01-30T00:48:22;100073;;;-0.15;80.48
4326;BME280;58429;49.826;10.880;2024-01-30T00:49:22;100073;;;-0.14;80.42
4326;BME280;58429;49.826;10.880;2024-01-30T00:50:22;100079;;;-0.11;80.36
4326;BME280;58429;49.826;10.880;2024-01-30T00:51:22;100074;;;-0.12;80.29
4326;BME280;58429;49.826;10.880;2024-01-30T00:52:22;100074;;;-0.15;80.21
4326;BME280;58429;49.826;10.880;2024-01-30T00:53:22;100074;;;-0.11;80.12
4326;BME280;58429;49.826;10.880;2024-01-30T00:54:22;100074;;;-0.14;80.05
4326;BME280;58429;49.826;10.880;2024-01-30T00:55:22;100067;;;-0.15;79.97
4326;BME280;58429;49.826;10.880;2024-01-30T00:56:22;100067;;;-0.19;79.84
4326;BME280;58429;49.826;10.880;2024-01-30T00:57:22;100069;;;-0.16;79.8
4326;BME280;58429;49.826;10.880;2024-01-30T00:58:22;100063;;;-0.16;79.74
4326;BME280;58429;49.826;10.880;2024-01-30T00:59:22;100064;;;-0.17;79.72
4326;BME280;58429;49.826;10.880;2024-01-30T01:00:22;100060;;;-0.19;79.7
4326;BME280;58429;49.826;10.880;2024-01-30T01:01:22;100066;;;-0.18;79.64
4326;BME280;58429;49.826;10.880;2024-01-30T01:02:23;100062;;;-0.2;79.62
4326;BME280;58429;49.826;10.880;2024-01-30T01:03:22;100069;;;-0.21;79.63
4326;BME280;58429;49.826;10.880;2024-01-30T01:04:22;100065;;;-0.22;79.61
4326;BME280;58429;49.826;10.880;2024-01-30T01:05:22;100065;;;-0.2;79.63
4326;BME280;58429;49.826;10.880;2024-01-30T01:06:22;100061;;;-0.23;79.57
4326;BME280;58429;49.826;10.880;2024-01-30T01:07:22;100066;;;-0.24;79.55
4326;BME280;58429;49.826;10.880;2024-01-30T01:08:22;100064;;;-0.21;79.58
4326;BME280;58429;49.826;10.880;2024-01-30T01:09:22;100066;;;-0.24;79.6
4326;BME280;58429;49.826;10.880;2024-01-30T01:10:22;100065;;;-0.22;79.6
4326;BME280;58429;49.826;10.880;2024-01-30T01:11:22;100058;;;-0.26;79.56
4326;BME280;58429;49.826;10.880;2024-01-30T01:12:22;100061;;;-0.24;79.58
4326;BME280;58429;49.826;10.880;2024-01-30T01:13:22;100062;;;-0.22;79.64
4326;BME280;58429;49.826;10.880;2024-01-30T01:14:22;100064;;;-0.24;79.58
4326;BME280;58429;49.826;10.880;2024-01-30T01:15:22;100060;;;-0.24;79.56
4326;BME280;58429;49.826;10.880;2024-01-30T01:16:22;100051;;;-0.28;79.61
4326;BME280;58429;49.826;10.880;2024-01-30T01:17:22;100051;;;-0.28;79.6
4326;BME280;58429;49.826;10.880;2024-01-30T01:18:22;100057;;;-0.27;79.67
4326;BME280;58429;49.826;10.880;2024-01-30T01:19:22;100058;;;-0.31;79.63
4326;BME280;58429;49.826;10.880;2024-01-30T01:20:22;100062;;;-0.31;79.66
4326;BME280;58429;49.826;10.880;2024-01-30T01:21:22;100061;;;-0.31;79.67
4326;BME280;58429;49.826;10.880;2024-01-30T01:22:22;100064;;;-0.3;79.68
4326;BME280;58429;49.826;10.880;2024-01-30T01:23:22;100067;;;-0.33;79.66
4326;BME280;58429;49.826;10.880;2024-01-30T01:24:22;100069;;;-0.28;79.64
4326;BME280;58429;49.826;10.880;2024-01-30T01:25:22;100068;;;-0.3;79.68
4326;BME280;58429;49.826;10.880;2024-01-30T01:26:22;100072;;;-0.28;79.76
4326;BME280;58429;49.826;10.880;2024-01-30T01:27:22;100072;;;-0.3;79.91
4326;BME280;58429;49.826;10.880;2024-01-30T01:28:22;100070;;;-0.36;80.06
4326;BME280;58429;49.826;10.880;2024-01-30T01:29:22;100070;;;-0.32;80.18
4326;BME280;58429;49.826;10.880;2024-01-30T01:30:22;100065;;;-0.29;80.16
4326;BME280;58429;49.826;10.880;2024-01-30T01:31:22;100063;;;-0.33;80.1
4326;BME280;58429;49.826;10.880;2024-01-30T01:32:22;100070;;;-0.35;79.99
4326;BME280;58429;49.826;10.880;2024-01-30T01:33:22;100060;;;-0.35;79.93
4326;BME280;58429;49.826;10.880;2024-01-30T01:34:22;100064;;;-0.37;79.85
4326;BME280;58429;49.826;10.880;2024-01-30T01:35:22;100062;;;-0.33;79.84
4326;BME280;58429;49.826;10.880;2024-01-30T01:36:22;100059;;;-0.32;79.76
4326;BME280;58429;49.826;10.880;2024-01-30T01:37:22;100062;;;-0.34;79.7
4326;BME280;58429;49.826;10.880;2024-01-30T01:38:22;100061;;;-0.39;79.68
4326;BME280;58429;49.826;10.880;2024-01-30T01:39:22;100059;;;-0.4;79.65
4326;BME280;58429;49.826;10.880;2024-01-30T01:40:22;100046;;;-0.41;79.65
4326;BME280;58429;49.826;10.880;2024-01-30T01:41:22;100043;;;-0.41;79.79
4326;BME280;58429;49.826;10.880;2024-01-30T01:42:22;100048;;;-0.42;79.75
4326;BME280;58429;49.826;10.880;2024-01-30T01:43:22;100039;;;-0.44;79.81
4326;BME280;58429;49.826;10.880;2024-01-30T01:44:22;100047;;;-0.46;79.84
4326;BME280;58429;49.826;10.880;2024-01-30T01:45:22;100051;;;-0.44;79.86
4326;BME280;58429;49.826;10.880;2024-01-30T01:46:22;100047;;;-0.46;79.91
4326;BME280;58429;49.826;10.880;2024-01-30T01:47:22;100053;;;-0.48;80
4326;BME280;58429;49.826;10.880;2024-01-30T01:48:22;100052;;;-0.48;80.04
4326;BME280;58429;49.826;10.880;2024-01-30T01:49:22;100056;;;-0.44;80.12
4326;BME280;58429;49.826;10.880;2024-01-30T01:50:22;100050;;;-0.51;80.19
4326;BME280;58429;49.826;10.880;2024-01-30T01:51:22;100061;;;-0.52;80.49
4326;BME280;58429;49.826;10.880;2024-01-30T01:52:22;100063;;;-0.57;81.04
4326;BME280;58429;49.826;10.880;2024-01-30T01:53:22;100064;;;-0.61;82.09
4326;BME280;58429;49.826;10.880;2024-01-30T01:54:22;100063;;;-0.62;82.57
4326;BME280;58429;49.826;10.880;2024-01-30T01:55:22;100065;;;-0.64;83.17
4326;BME280;58429;49.826;10.880;2024-01-30T01:56:22;100059;;;-0.64;82.94
4326;BME280;58429;49.826;10.880;2024-01-30T01:57:22;100064;;;-0.65;82.91
4326;BME280;58429;49.826;10.880;2024-01-30T01:58:22;100061;;;-0.64;83.14
4326;BME280;58429;49.826;10.880;2024-01-30T01:59:22;100066;;;-0.66;83.32
4326;BME280;58429;49.826;10.880;2024-01-30T02:00:22;100066;;;-0.64;83.27
4326;BME280;58429;49.826;10.880;2024-01-30T02:01:22;100062;;;-0.63;83.49
4326;BME280;58429;49.826;10.880;2024-01-30T02:02:22;100066;;;-0.66;83.39
4326;BME280;58429;49.826;10.880;2024-01-30T02:03:22;100063;;;-0.64;83.24
4326;BME280;58429;49.826;10.880;2024-01-30T02:04:22;100060;;;-0.66;83.16
4326;BME280;58429;49.826;10.880;2024-01-30T02:05:22;100054;;;-0.65;83.11
4326;BME280;58429;49.826;10.880;2024-01-30T02:06:22;100049;;;-0.64;83.1
4326;BME280;58429;49.826;10.880;2024-01-30T02:07:22;100056;;;-0.65;83.15
4326;BME280;58429;49.826;10.880;2024-01-30T02:08:22;100054;;;-0.61;83.07
4326;BME280;58429;49.826;10.880;2024-01-30T02:09:22;100051;;;-0.6;82.95
4326;BME280;58429;49.826;10.880;2024-01-30T02:10:22;100044;;;-0.6;82.73
4326;BME280;58429;49.826;10.880;2024-01-30T02:11:22;100050;;;-0.57;82.57
4326;BME280;58429;49.826;10.880;2024-01-30T02:12:22;100043;;;-0.59;82.43
4326;BME280;58429;49.826;10.880;2024-01-30T02:13:22;100045;;;-0.57;82.31
4326;BME280;58429;49.826;10.880;2024-01-30T02:14:22;100043;;;-0.57;82.19
4326;BME280;58429;49.826;10.880;2024-01-30T02:15:22;100040;;;-0.54;82.14
4326;BME280;58429;49.826;10.880;2024-01-30T02:16:22;100041;;;-0.54;82.08
4326;BME280;58429;49.826;10.880;2024-01-30T02:17:22;100037;;;-0.56;82
4326;BME280;58429;49.826;10.880;2024-01-30T02:18:22;100030;;;-0.5;81.93
4326;BME280;58429;49.826;10.880;2024-01-30T02:19:22;100035;;;-0.48;81.86
4326;BME280;58429;49.826;10.880;2024-01-30T02:20:22;100026;;;-0.48;81.78
4326;BME280;58429;49.826;10.880;2024-01-30T02:21:22;100031;;;-0.45;81.68
4326;BME280;58429;49.826;10.880;2024-01-30T02:22:22;100025;;;-0.46;81.55
4326;BME280;58429;49.826;10.880;2024-01-30T02:23:22;100025;;;-0.43;81.49
4326;BME280;58429;49.826;10.880;2024-01-30T02:24:22;100032;;;-0.49;81.41
4326;BME280;58429;49.826;10.880;2024-01-30T02:25:29;100030;;;-0.46;81.35
4326;BME280;58429;49.826;10.880;2024-01-30T02:26:22;100034;;;-0.51;81.35
4326;BME280;58429;49.826;10.880;2024-01-30T02:27:22;100034;;;-0.52;81.48
4326;BME280;58429;49.826;10.880;2024-01-30T02:28:22;100034;;;-0.61;82.05
4326;BME280;58429;49.826;10.880;2024-01-30T02:29:22;100032;;;-0.66;82.02
4326;BME280;58429;49.826;10.880;2024-01-30T02:30:22;100037;;;-0.69;82.35
4326;BME280;58429;49.826;10.880;2024-01-30T02:31:22;100042;;;-0.8;82.68
4326;BME280;58429;49.826;10.880;2024-01-30T02:32:22;100044;;;-0.84;82.69
4326;BME280;58429;49.826;10.880;2024-01-30T02:33:22;100038;;;-0.88;83.1
4326;BME280;58429;49.826;10.880;2024-01-30T02:34:22;100037;;;-0.91;83.41
4326;BME280;58429;49.826;10.880;2024-01-30T02:35:22;100029;;;-0.88;83.33
4326;BME280;58429;49.826;10.880;2024-01-30T02:36:22;100032;;;-0.85;83.27
4326;BME280;58429;49.826;10.880;2024-01-30T02:37:22;100042;;;-0.83;83.38
4326;BME280;58429;49.826;10.880;2024-01-30T02:38:22;100033;;;-0.86;83.34
4326;BME280;58429;49.826;10.880;2024-01-30T02:39:22;100037;;;-0.82;83.38
4326;BME280;58429;49.826;10.880;2024-01-30T02:40:22;100040;;;-0.8;83.56
4326;BME280;58429;49.826;10.880;2024-01-30T02:41:22;100035;;;-0.8;83.61
4326;BME280;58429;49.826;10.880;2024-01-30T02:42:22;100043;;;-0.74;83.56
4326;BME280;58429;49.826;10.880;2024-01-30T02:43:22;100035;;;-0.72;83.53
4326;BME280;58429;49.826;10.880;2024-01-30T02:44:22;100037;;;-0.71;83.64
4326;BME280;58429;49.826;10.880;2024-01-30T02:45:22;100034;;;-0.71;83.46
4326;BME280;58429;49.826;10.880;2024-01-30T02:46:22;100032;;;-0.69;83.47
4326;BME280;58429;49.826;10.880;2024-01-30T02:47:22;100034;;;-0.72;83.46
4326;BME280;58429;49.826;10.880;2024-01-30T02:48:22;100035;;;-0.68;83.42
4326;BME280;58429;49.826;10.880;2024-01-30T02:49:22;100033;;;-0.68;83.34
4326;BME280;58429;49.826;10.880;2024-01-30T02:50:22;100026;;;-0.66;83.33
4326;BME280;58429;49.826;10.880;2024-01-30T02:51:22;100031;;;-0.67;83.26
4326;BME280;58429;49.826;10.880;2024-01-30T02:52:22;100037;;;-0.65;83.24
4326;BME280;58429;49.826;10.880;2024-01-30T02:53:22;100035;;;-0.65;83.28
4326;BME280;58429;49.826;10.880;2024-01-30T02:54:22;100036;;;-0.66;83.13
4326;BME280;58429;49.826;10.880;2024-01-30T02:55:22;100030;;;-0.67;83.14
4326;BME280;58429;49.826;10.880;2024-01-30T02:56:22;100034;;;-0.66;83.14
4326;BME280;58429;49.826;10.880;2024-01-30T02:57:22;100034;;;-0.64;83.37
4326;BME280;58429;49.826;10.880;2024-01-30T02:58:22;100037;;;-0.63;83.42
4326;BME280;58429;49.826;10.880;2024-01-30T02:59:22;100032;;;-0.58;83.52
4326;BME280;58429;49.826;10.880;2024-01-30T03:00:22;100035;;;-0.58;83.33
4326;BME280;58429;49.826;10.880;2024-01-30T03:01:22;100036;;;-0.57;83.18
4326;BME280;58429;49.826;10.880;2024-01-30T03:02:22;100031;;;-0.57;83
4326;BME280;58429;49.826;10.880;2024-01-30T03:03:22;100039;;;-0.61;82.91
4326;BME280;58429;49.826;10.880;2024-01-30T03:04:22;100039;;;-0.57;82.98
4326;BME280;58429;49.826;10.880;2024-01-30T03:05:22;100031;;;-0.57;83.01
4326;BME280;58429;49.826;10.880;2024-01-30T03:06:22;100038;;;-0.57;83.2
4326;BME280;58429;49.826;10.880;2024-01-30T03:07:22;100029;;;-0.61;83.22
4326;BME280;58429;49.826;10.880;2024-01-30T03:08:22;100035;;;-0.64;83.21
4326;BME280;58429;49.826;10.880;2024-01-30T03:09:22;100034;;;-0.68;83.41
4326;BME280;58429;49.826;10.880;2024-01-30T03:10:22;100035;;;-0.71;83.56
4326;BME280;58429;49.826;10.880;2024-01-30T03:11:22;100037;;;-0.77;83.91
4326;BME280;58429;49.826;10.880;2024-01-30T03:12:22;100027;;;-0.82;84.04
4326;BME280;58429;49.826;10.880;2024-01-30T03:13:22;100032;;;-0.85;84.02
4326;BME280;58429;49.826;10.880;2024-01-30T03:14:22;100034;;;-0.87;83.95
4326;BME280;58429;49.826;10.880;2024-01-30T03:15:22;100031;;;-0.91;84.04
4326;BME280;58429;49.826;10.880;2024-01-30T03:16:22;100033;;;-0.93;84.04
4326;BME280;58429;49.826;10.880;2024-01-30T03:17:22;100031;;;-0.93;83.97
4326;BME280;58429;49.826;10.880;2024-01-30T03:18:22;100033;;;-0.93;83.99
4326;BME280;58429;49.826;10.880;2024-01-30T03:19:22;100030;;;-0.93;83.99
4326;BME280;58429;49.826;10.880;2024-01-30T03:20:22;100034;;;-0.93;83.87
4326;BME280;58429;49.826;10.880;2024-01-30T03:21:22;100029;;;-0.95;83.82
4326;BME280;58429;49.826;10.880;2024-01-30T03:22:22;100024;;;-0.93;83.65
4326;BME280;58429;49.826;10.880;2024-01-30T03:23:22;100029;;;-0.92;83.54
4326;BME280;58429;49.826;10.880;2024-01-30T03:24:22;100030;;;-0.9;83.42
4326;BME280;58429;49.826;10.880;2024-01-30T03:25:27;100028;;;-0.92;83.26
4326;BME280;58429;49.826;10.880;2024-01-30T03:26:22;100031;;;-0.92;83.16
4326;BME280;58429;49.826;10.880;2024-01-30T03:27:22;100032;;;-0.91;82.99
4326;BME280;58429;49.826;10.880;2024-01-30T03:28:22;100030;;;-0.91;82.89
4326;BME280;58429;49.826;10.880;2024-01-30T03:29:22;100028;;;-0.87;82.78
4326;BME280;58429;49.826;10.880;2024-01-30T03:30:22;100029;;;-0.88;82.68
4326;BME280;58429;49.826;10.880;2024-01-30T03:31:22;100030;;;-0.88;82.55
4326;BME280;58429;49.826;10.880;2024-01-30T03:32:22;100023;;;-0.87;82.46
4326;BME280;58429;49.826;10.880;2024-01-30T03:33:22;100025;;;-0.89;82.31
4326;BME280;58429;49.826;10.880;2024-01-30T03:34:22;100033;;;-0.91;82.2
4326;BME280;58429;49.826;10.880;2024-01-30T03:35:22;100029;;;-0.89;82.16
4326;BME280;58429;49.826;10.880;2024-01-30T03:36:22;100031;;;-0.92;82.02
4326;BME280;58429;49.826;10.880;2024-01-30T03:37:22;100031;;;-0.92;81.93
4326;BME280;58429;49.826;10.880;2024-01-30T03:38:22;100027;;;-0.92;81.85
4326;BME280;58429;49.826;10.880;2024-01-30T03:39:22;100034;;;-0.92;81.83
4326;BME280;58429;49.826;10.880;2024-01-30T03:40:22;100032;;;-0.9;81.78
4326;BME280;58429;49.826;10.880;2024-01-30T03:41:22;100030;;;-0.89;81.74
4326;BME280;58429;49.826;10.880;2024-01-30T03:42:22;100031;;;-0.89;81.64
4326;BME280;58429;49.826;10.880;2024-01-30T03:43:22;100036;;;-0.89;81.58
4326;BME280;58429;49.826;10.880;2024-01-30T03:44:22;100043;;;-0.91;81.43
4326;BME280;58429;49.826;10.880;2024-01-30T03:45:22;100035;;;-0.92;81.41
4326;BME280;58429;49.826;10.880;2024-01-30T03:46:22;100039;;;-0.92;81.35
4326;BME280;58429;49.826;10.880;2024-01-30T03:47:22;100036;;;-0.93;81.37
4326;BME280;58429;49.826;10.880;2024-01-30T03:48:22;100046;;;-0.94;81.36
4326;BME280;58429;49.826;10.880;2024-01-30T03:49:22;100042;;;-0.95;81.39
4326;BME280;58429;49.826;10.880;2024-01-30T03:50:22;100043;;;-0.94;81.31
4326;BME280;58429;49.826;10.880;2024-01-30T03:51:22;100043;;;-0.94;81.27
4326;BME280;58429;49.826;10.880;2024-01-30T03:52:22;100045;;;-0.94;81.25
4326;BME280;58429;49.826;10.880;2024-01-30T03:53:22;100050;;;-0.98;81.19
4326;BME280;58429;49.826;10.880;2024-01-30T03:54:22;100045;;;-1;81.13
4326;BME280;58429;49.826;10.880;2024-01-30T03:55:22;100050;;;-0.99;81.09
4326;BME280;58429;49.826;10.880;2024-01-30T03:56:22;100042;;;-1.01;81.03
4326;BME280;58429;49.826;10.880;2024-01-30T03:57:22;100041;;;-1.02;81.02
4326;BME280;58429;49.826;10.880;2024-01-30T03:58:22;100041;;;-1.06;80.97
4326;BME280;58429;49.826;10.880;2024-01-30T03:59:22;100035;;;-1.05;80.98
4326;BME280;58429;49.826;10.880;2024-01-30T04:00:22;100033;;;-1.09;80.94
4326;BME280;58429;49.826;10.880;2024-01-30T04:01:22;100036;;;-1.09;80.91
4326;BME280;58429;49.826;10.880;2024-01-30T04:02:22;100035;;;-1.09;80.96
4326;BME280;58429;49.826;10.880;2024-01-30T04:03:22;100038;;;-1.11;80.96
4326;BME280;58429;49.826;10.880;2024-01-30T04:04:22;100046;;;-1.08;80.99
4326;BME280;58429;49.826;10.880;2024-01-30T04:05:22;100043;;;-1.1;80.96
4326;BME280;58429;49.826;10.880;2024-01-30T04:06:22;100038;;;-1.07;81
4326;BME280;58429;49.826;10.880;2024-01-30T04:07:22;100035;;;-1.11;80.99
4326;BME280;58429;49.826;10.880;2024-01-30T04:08:22;100034;;;-1.08;81.01
4326;BME280;58429;49.826;10.880;2024-01-30T04:09:22;100033;;;-1.12;81.01
4326;BME280;58429;49.826;10.880;2024-01-30T04:10:22;100028;;;-1.11;81.01
4326;BME280;58429;49.826;10.880;2024-01-30T04:11:22;100028;;;-1.12;81.01
4326;BME280;58429;49.826;10.880;2024-01-30T04:12:22;100026;;;-1.12;81
4326;BME280;58429;49.826;10.880;2024-01-30T04:13:22;100028;;;-1.12;80.98
4326;BME280;58429;49.826;10.880;2024-01-30T04:14:22;100030;;;-1.15;81
4326;BME280;58429;49.826;10.880;2024-01-30T04:15:22;100031;;;-1.12;81.03
4326;BME280;58429;49.826;10.880;2024-01-30T04:16:22;100031;;;-1.12;81.08
4326;BME280;58429;49.826;10.880;2024-01-30T04:17:22;100028;;;-1.13;81.12
4326;BME280;58429;49.826;10.880;2024-01-30T04:18:22;100030;;;-1.11;81.15
4326;BME280;58429;49.826;10.880;2024-01-30T04:19:22;100032;;;-1.13;81.15
4326;BME280;58429;49.826;10.880;2024-01-30T04:20:22;100032;;;-1.14;81.15
4326;BME280;58429;49.826;10.880;2024-01-30T04:21:22;100032;;;-1.12;81.17
4326;BME280;58429;49.826;10.880;2024-01-30T04:22:22;100031;;;-1.12;81.22
4326;BME280;58429;49.826;10.880;2024-01-30T04:23:22;100032;;;-1.14;81.22
4326;BME280;58429;49.826;10.880;2024-01-30T04:24:22;100030;;;-1.12;81.24
4326;BME280;58429;49.826;10.880;2024-01-30T04:25:22;100035;;;-1.13;81.29
4326;BME280;58429;49.826;10.880;2024-01-30T04:26:22;100034;;;-1.15;81.37
4326;BME280;58429;49.826;10.880;2024-01-30T04:27:22;100033;;;-1.15;81.37
4326;BME280;58429;49.826;10.880;2024-01-30T04:28:22;100028;;;-1.17;81.41
4326;BME280;58429;49.826;10.880;2024-01-30T04:29:22;100038;;;-1.17;81.5
4326;BME280;58429;49.826;10.880;2024-01-30T04:30:22;100037;;;-1.18;81.52
4326;BME280;58429;49.826;10.880;2024-01-30T04:31:22;100037;;;-1.16;81.53
4326;BME280;58429;49.826;10.880;2024-01-30T04:32:22;100036;;;-1.12;81.54
4326;BME280;58429;49.826;10.880;2024-01-30T04:33:22;100038;;;-1.16;81.53
4326;BME280;58429;49.826;10.880;2024-01-30T04:34:22;100037;;;-1.15;81.57
4326;BME280;58429;49.826;10.880;2024-01-30T04:35:22;100042;;;-1.15;81.62
4326;BME280;58429;49.826;10.880;2024-01-30T04:36:22;100037;;;-1.16;81.67
4326;BME280;58429;49.826;10.880;2024-01-30T04:37:22;100037;;;-1.14;81.69
4326;BME280;58429;49.826;10.880;2024-01-30T04:38:22;100040;;;-1.15;81.8
4326;BME280;58429;49.826;10.880;2024-01-30T04:39:22;100037;;;-1.18;81.83
4326;BME280;58429;49.826;10.880;2024-01-30T04:40:22;100042;;;-1.2;81.87
4326;BME280;58429;49.826;10.880;2024-01-30T04:41:22;100034;;;-1.18;81.95
4326;BME280;58429;49.826;10.880;2024-01-30T04:42:22;100035;;;-1.16;81.92
4326;BME280;58429;49.826;10.880;2024-01-30T04:43:22;100038;;;-1.16;81.88
4326;BME280;58429;49.826;10.880;2024-01-30T04:44:22;100039;;;-1.16;81.84
4326;BME280;58429;49.826;10.880;2024-01-30T04:45:22;100039;;;-1.16;81.84
4326;BME280;58429;49.826;10.880;2024-01-30T04:46:22;100039;;;-1.16;81.79
4326;BME280;58429;49.826;10.880;2024-01-30T04:47:22;100032;;;-1.16;81.76
4326;BME280;58429;49.826;10.880;2024-01-30T04:48:22;100042;;;-1.19;81.73
4326;BME280;58429;49.826;10.880;2024-01-30T04:49:22;100037;;;-1.2;81.68
4326;BME280;58429;49.826;10.880;2024-01-30T04:50:22;100042;;;-1.17;81.64
4326;BME280;58429;49.826;10.880;2024-01-30T04:51:22;100038;;;-1.19;81.58
4326;BME280;58429;49.826;10.880;2024-01-30T04:52:22;100037;;;-1.23;81.59
4326;BME280;58429;49.826;10.880;2024-01-30T04:53:22;100043;;;-1.22;81.56
4326;BME280;58429;49.826;10.880;2024-01-30T04:54:22;100044;;;-1.22;81.64
4326;BME280;58429;49.826;10.880;2024-01-30T04:55:22;100049;;;-1.24;81.67
4326;BME280;58429;49.826;10.880;2024-01-30T04:56:22;100044;;;-1.22;81.72
4326;BME280;58429;49.826;10.880;2024-01-30T04:57:22;100046;;;-1.21;81.7
4326;BME280;58429;49.826;10.880;2024-01-30T04:58:22;100046;;;-1.21;81.7
4326;BME280;58429;49.826;10.880;2024-01-30T04:59:22;100048;;;-1.27;81.85
4326;BME280;58429;49.826;10.880;2024-01-30T05:00:22;100051;;;-1.24;81.91
4326;BME280;58429;49.826;10.880;2024-01-30T05:01:23;100046;;;-1.24;81.9
4326;BME280;58429;49.826;10.880;2024-01-30T05:02:22;100047;;;-1.26;81.91
4326;BME280;58429;49.826;10.880;2024-01-30T05:03:22;100050;;;-1.23;81.92
4326;BME280;58429;49.826;10.880;2024-01-30T05:04:22;100049;;;-1.27;81.98
4326;BME280;58429;49.826;10.880;2024-01-30T05:05:22;100050;;;-1.24;82.1
4326;BME280;58429;49.826;10.880;2024-01-30T05:06:24;100054;;;-1.28;82.3
4326;BME280;58429;49.826;10.880;2024-01-30T05:07:22;100053;;;-1.25;82.29
4326;BME280;58429;49.826;10.880;2024-01-30T05:08:22;100056;;;-1.29;82.44
4326;BME280;58429;49.826;10.880;2024-01-30T05:09:22;100053;;;-1.29;82.5
4326;BME280;58429;49.826;10.880;2024-01-30T05:10:22;100053;;;-1.28;82.58
4326;BME280;58429;49.826;10.880;2024-01-30T05:11:22;100055;;;-1.25;82.69
4326;BME280;58429;49.826;10.880;2024-01-30T05:12:22;100055;;;-1.26;82.69
4326;BME280;58429;49.826;10.880;2024-01-30T05:13:22;100060;;;-1.23;82.76
4326;BME280;58429;49.826;10.880;2024-01-30T05:14:22;100060;;;-1.26;82.72
4326;BME280;58429;49.826;10.880;2024-01-30T05:15:22;100062;;;-1.24;82.77
4326;BME280;58429;49.826;10.880;2024-01-30T05:16:22;100061;;;-1.23;82.86
4326;BME280;58429;49.826;10.880;2024-01-30T05:17:23;100065;;;-1.22;83.33
4326;BME280;58429;49.826;10.880;2024-01-30T05:18:22;100066;;;-1.21;83.36
4326;BME280;58429;49.826;10.880;2024-01-30T05:19:22;100066;;;-1.22;83.43
4326;BME280;58429;49.826;10.880;2024-01-30T05:20:22;100064;;;-1.22;83.52
4326;BME280;58429;49.826;10.880;2024-01-30T05:21:22;100065;;;-1.2;83.51
4326;BME280;58429;49.826;10.880;2024-01-30T05:22:22;100065;;;-1.2;83.51
4326;BME280;58429;49.826;10.880;2024-01-30T05:23:22;100068;;;-1.19;83.48
4326;BME280;58429;49.826;10.880;2024-01-30T05:24:22;100072;;;-1.17;83.47
4326;BME280;58429;49.826;10.880;2024-01-30T05:25:22;100068;;;-1.17;83.42
4326;BME280;58429;49.826;10.880;2024-01-30T05:26:22;100068;;;-1.16;83.36
4326;BME280;58429;49.826;10.880;2024-01-30T05:27:22;100063;;;-1.17;83.31